Time;durP1;ratioP1;P1;durP2;ratioP2;P2;SDS_P1;SDS_P2;PMS_P1;PMS_P2;Temp;Humidity;BMP_temperature;BMP_pressure;BME280_temperature;BME280_humidity;BME280_pressure;Samples;Min_cycle;Max_cycle;Signal;HPM_P1;HPM_P2
2023/09/30 00:00:21;;;;;;;4.53;2.10;;;;;;;;;;8213299;28;20733;-61
2023/09/30 00:04:21;;;;;;;4.87;2.43;;;;;;;;;;8216092;28;20149;-62
2023/09/30 00:08:21;;;;;;;5.32;2.40;;;;;;;;;;8215560;28;20038;-62
2023/09/30 00:12:22;;;;;;;6.77;2.40;;;;;;;;;;8212192;28;20084;-62
2023/09/30 00:16:22;;;;;;;7.05;2.80;;;;;;;;;;8214341;28;20416;-63
2023/09/30 00:20:22;;;;;;;4.13;2.42;;;;;;;;;;8214375;28;20245;-65
2023/09/30 00:24:22;;;;;;;5.77;2.40;;;;;;;;;;8215453;28;20022;-62
2023/09/30 00:28:23;;;;;;;3.45;1.95;;;;;;;;;;8211920;28;20286;-62
2023/09/30 00:32:23;;;;;;;7.20;2.47;;;;;;;;;;8211391;28;20057;-62
2023/09/30 00:36:23;;;;;;;6.80;2.03;;;;;;;;;;8213290;28;20042;-62
2023/09/30 00:40:24;;;;;;;3.72;1.90;;;;;;;;;;8214230;28;20129;-61
2023/09/30 00:44:25;;;;;;;5.25;1.92;;;;;;;;;;8219296;28;20029;-61
2023/09/30 00:48:26;;;;;;;4.78;2.22;;;;;;;;;;8221016;28;20650;-62
2023/09/30 00:52:27;;;;;;;5.27;1.90;;;;;;;;;;8218093;28;20101;-62
2023/09/30 00:56:28;;;;;;;5.65;2.47;;;;;;;;;;8219950;28;20285;-62
2023/09/30 01:00:28;;;;;;;4.25;2.30;;;;;;;;;;8217946;28;20550;-62
2023/09/30 01:04:29;;;;;;;7.05;2.35;;;;;;;;;;8215698;28;20041;-62
2023/09/30 01:08:29;;;;;;;5.57;2.30;;;;;;;;;;8218763;28;20033;-61
2023/09/30 01:12:29;;;;;;;6.25;2.58;;;;;;;;;;8222570;28;20049;-61
2023/09/30 01:16:30;;;;;;;3.75;2.00;;;;;;;;;;8221485;28;20070;-62
2023/09/30 01:20:31;;;;;;;3.90;1.93;;;;;;;;;;8224247;28;20037;-63
2023/09/30 01:24:37;;;;;;;3.83;2.20;;;;;;;;;;8221693;28;20022;-62
2023/09/30 01:28:38;;;;;;;4.43;1.98;;;;;;;;;;8221692;28;20030;-62
2023/09/30 01:32:38;;;;;;;6.97;2.00;;;;;;;;;;8219716;28;20049;-62
2023/09/30 01:36:39;;;;;;;4.95;2.20;;;;;;;;;;8222553;28;20509;-61
2023/09/30 01:40:39;;;;;;;6.10;2.30;;;;;;;;;;8219135;28;20033;-61
2023/09/30 01:44:39;;;;;;;4.57;2.00;;;;;;;;;;8222053;28;20023;-62
2023/09/30 01:48:40;;;;;;;4.60;2.08;;;;;;;;;;8221583;28;20045;-61
2023/09/30 01:52:40;;;;;;;4.90;2.10;;;;;;;;;;8219341;28;20054;-61
2023/09/30 01:56:40;;;;;;;7.77;2.03;;;;;;;;;;8219600;28;20057;-63
2023/09/30 02:00:41;;;;;;;6.47;2.17;;;;;;;;;;8218608;28;20030;-62
2023/09/30 02:04:41;;;;;;;4.10;1.97;;;;;;;;;;8219302;28;20030;-62
2023/09/30 02:08:44;;;;;;;3.45;1.73;;;;;;;;;;8219190;28;20072;-62
2023/09/30 02:12:45;;;;;;;2.38;1.70;;;;;;;;;;8222850;28;20076;-62
2023/09/30 02:16:45;;;;;;;4.20;2.13;;;;;;;;;;8216599;28;20476;-62
2023/09/30 02:20:46;;;;;;;3.95;1.63;;;;;;;;;;8220745;28;20026;-62
2023/09/30 02:24:46;;;;;;;2.08;1.58;;;;;;;;;;8216439;28;20026;-62
2023/09/30 02:28:46;;;;;;;2.80;1.80;;;;;;;;;;8217909;28;20060;-62
2023/09/30 02:32:46;;;;;;;5.30;1.98;;;;;;;;;;8218174;28;20565;-62
2023/09/30 02:36:47;;;;;;;2.35;1.70;;;;;;;;;;8217770;28;20026;-62
2023/09/30 02:40:48;;;;;;;5.37;1.90;;;;;;;;;;8216675;28;20022;-62
2023/09/30 02:44:48;;;;;;;4.78;2.20;;;;;;;;;;8218176;28;20507;-63
2023/09/30 02:48:48;;;;;;;5.15;1.98;;;;;;;;;;8218896;28;20034;-62
2023/09/30 02:52:49;;;;;;;6.25;2.00;;;;;;;;;;8217380;28;20781;-62
2023/09/30 02:56:50;;;;;;;4.78;2.03;;;;;;;;;;8219594;28;20026;-62
2023/09/30 03:00:50;;;;;;;4.18;2.28;;;;;;;;;;8214705;28;20041;-62
2023/09/30 03:04:51;;;;;;;5.55;2.15;;;;;;;;;;8218669;28;20036;-62
2023/09/30 03:08:52;;;;;;;3.95;2.00;;;;;;;;;;8218140;28;23346;-62
2023/09/30 03:12:53;;;;;;;3.13;1.70;;;;;;;;;;8218134;28;22729;-62
2023/09/30 03:16:53;;;;;;;3.33;2.05;;;;;;;;;;8216906;28;21277;-62
2023/09/30 03:21:00;;;;;;;4.32;1.90;;;;;;;;;;8218030;28;20033;-62
2023/09/30 03:25:00;;;;;;;5.25;2.10;;;;;;;;;;8219281;28;20145;-62
2023/09/30 03:29:00;;;;;;;5.00;2.17;;;;;;;;;;8216524;28;20110;-62
2023/09/30 03:33:04;;;;;;;5.10;2.53;;;;;;;;;;8212366;28;20288;-63
2023/09/30 03:37:07;;;;;;;3.63;1.88;;;;;;;;;;8220929;28;20025;-62
2023/09/30 03:41:08;;;;;;;3.58;2.42;;;;;;;;;;8220477;28;20135;-62
2023/09/30 03:45:09;;;;;;;5.00;2.85;;;;;;;;;;8222589;28;20127;-62
2023/09/30 03:49:09;;;;;;;4.55;2.75;;;;;;;;;;8224386;28;20041;-62
2023/09/30 03:53:10;;;;;;;7.22;2.97;;;;;;;;;;8220114;28;20894;-62
2023/09/30 03:57:12;;;;;;;5.28;3.20;;;;;;;;;;8222745;28;20035;-62
2023/09/30 04:01:19;;;;;;;6.47;3.58;;;;;;;;;;8219873;28;20034;-62
2023/09/30 04:05:26;;;;;;;6.75;3.58;;;;;;;;;;8219915;28;20104;-62
2023/09/30 04:09:26;;;;;;;9.15;4.20;;;;;;;;;;8218564;28;20140;-62
2023/09/30 04:13:27;;;;;;;11.23;3.77;;;;;;;;;;8220472;28;20081;-62
2023/09/30 04:17:27;;;;;;;7.05;3.60;;;;;;;;;;8220032;28;20049;-62
2023/09/30 04:21:29;;;;;;;3.90;2.90;;;;;;;;;;8226557;28;20426;-62
2023/09/30 04:25:30;;;;;;;6.70;3.45;;;;;;;;;;8228422;28;20331;-65
2023/09/30 04:29:30;;;;;;;5.32;3.25;;;;;;;;;;8225491;28;20451;-63
2023/09/30 04:33:30;;;;;;;7.30;3.78;;;;;;;;;;8225194;28;20045;-62
2023/09/30 04:37:31;;;;;;;7.80;4.53;;;;;;;;;;8222653;28;20025;-63
2023/09/30 04:41:31;;;;;;;12.57;5.43;;;;;;;;;;8225192;28;20018;-62
2023/09/30 04:45:31;;;;;;;9.00;4.82;;;;;;;;;;8220757;28;20030;-62
2023/09/30 04:49:32;;;;;;;10.15;4.45;;;;;;;;;;8220147;28;20967;-62
2023/09/30 04:53:33;;;;;;;7.32;4.03;;;;;;;;;;8224851;28;20022;-62
2023/09/30 04:57:33;;;;;;;8.32;4.50;;;;;;;;;;8226399;28;20022;-62
2023/09/30 05:01:34;;;;;;;6.13;4.32;;;;;;;;;;8223931;28;20038;-62
2023/09/30 05:05:35;;;;;;;9.63;4.60;;;;;;;;;;8226820;28;20033;-62
2023/09/30 05:09:36;;;;;;;11.43;4.90;;;;;;;;;;8223783;28;20144;-62
2023/09/30 05:13:36;;;;;;;8.80;5.15;;;;;;;;;;8226793;28;20022;-61
2023/09/30 05:17:36;;;;;;;6.35;3.90;;;;;;;;;;8221779;28;20042;-62
2023/09/30 05:21:36;;;;;;;7.00;4.00;;;;;;;;;;8224042;28;20042;-61
2023/09/30 05:25:37;;;;;;;7.30;4.22;;;;;;;;;;8224226;28;20114;-62
2023/09/30 05:29:37;;;;;;;5.30;3.70;;;;;;;;;;8223030;28;20030;-62
2023/09/30 05:33:37;;;;;;;5.87;3.97;;;;;;;;;;8223716;28;20029;-62
2023/09/30 05:37:47;;;;;;;7.20;4.07;;;;;;;;;;8226187;28;20158;-61
2023/09/30 05:41:47;;;;;;;7.70;4.30;;;;;;;;;;8224984;28;20844;-61
2023/09/30 05:45:54;;;;;;;5.82;4.38;;;;;;;;;;8226677;28;20065;-61
2023/09/30 05:49:55;;;;;;;8.85;4.20;;;;;;;;;;8216202;28;20022;-65
2023/09/30 05:53:55;;;;;;;6.68;3.78;;;;;;;;;;8225672;28;20048;-61
2023/09/30 05:57:56;;;;;;;7.20;4.57;;;;;;;;;;8222972;28;20033;-62
2023/09/30 06:01:56;;;;;;;7.63;4.13;;;;;;;;;;8218892;28;20049;-62
2023/09/30 06:05:56;;;;;;;7.35;4.28;;;;;;;;;;8222934;28;20038;-64
2023/09/30 06:09:57;;;;;;;8.52;4.78;;;;;;;;;;8222810;28;20030;-62
2023/09/30 06:13:58;;;;;;;8.63;4.70;;;;;;;;;;8223768;28;20109;-62
2023/09/30 06:17:59;;;;;;;7.65;4.70;;;;;;;;;;8220812;28;20270;-63
2023/09/30 06:22:00;;;;;;;7.72;5.07;;;;;;;;;;8222756;28;20032;-62
2023/09/30 06:26:02;;;;;;;9.00;5.15;;;;;;;;;;8216977;28;20392;-62
2023/09/30 06:30:02;;;;;;;7.15;4.15;;;;;;;;;;8219731;28;20030;-63
2023/09/30 06:34:04;;;;;;;7.85;4.70;;;;;;;;;;8220272;28;20057;-62
2023/09/30 06:38:06;;;;;;;7.28;4.60;;;;;;;;;;8221744;28;20035;-63
2023/09/30 06:42:07;;;;;;;8.68;4.75;;;;;;;;;;8217718;28;20114;-60
2023/09/30 06:46:10;;;;;;;9.13;4.90;;;;;;;;;;8214962;28;20047;-62
2023/09/30 06:50:12;;;;;;;7.68;4.30;;;;;;;;;;8219828;28;20029;-61
2023/09/30 06:54:12;;;;;;;6.75;4.72;;;;;;;;;;8219470;28;20060;-63
2023/09/30 06:58:13;;;;;;;9.35;5.40;;;;;;;;;;8219651;28;20019;-62
2023/09/30 07:02:14;;;;;;;10.35;4.57;;;;;;;;;;8220976;28;20744;-61
2023/09/30 07:06:21;;;;;;;8.52;4.30;;;;;;;;;;8221221;28;20049;-61
2023/09/30 07:10:21;;;;;;;10.55;5.10;;;;;;;;;;8215526;28;20026;-61
2023/09/30 07:14:21;;;;;;;9.70;5.03;;;;;;;;;;8215278;28;20495;-62
2023/09/30 07:18:24;;;;;;;9.82;5.28;;;;;;;;;;8215707;28;20061;-62
2023/09/30 07:22:24;;;;;;;11.13;5.47;;;;;;;;;;8220816;28;20025;-61
2023/09/30 07:26:25;;;;;;;6.80;5.40;;;;;;;;;;8216507;28;20034;-62
2023/09/30 07:30:25;;;;;;;11.05;5.63;;;;;;;;;;8218958;28;20145;-62
2023/09/30 07:34:25;;;;;;;7.70;4.27;;;;;;;;;;8220981;28;20028;-63
2023/09/30 07:38:26;;;;;;;6.80;4.57;;;;;;;;;;8218735;28;20091;-62
2023/09/30 07:42:26;;;;;;;9.07;5.15;;;;;;;;;;8219764;28;20030;-62
2023/09/30 07:46:27;;;;;;;6.23;4.37;;;;;;;;;;8218364;28;20042;-62
2023/09/30 07:50:27;;;;;;;7.50;3.97;;;;;;;;;;8216188;28;20026;-62
2023/09/30 07:54:27;;;;;;;9.27;3.73;;;;;;;;;;8219569;28;20319;-63
2023/09/30 07:58:28;;;;;;;8.35;3.55;;;;;;;;;;8225023;28;20989;-62
2023/09/30 08:02:33;;;;;;;7.32;3.58;;;;;;;;;;8222971;28;20530;-63
2023/09/30 08:06:33;;;;;;;8.88;3.47;;;;;;;;;;8225633;28;20030;-62
2023/09/30 08:10:33;;;;;;;7.40;3.10;;;;;;;;;;8222426;28;20038;-63
2023/09/30 08:14:33;;;;;;;7.93;3.47;;;;;;;;;;8222845;28;20036;-63
2023/09/30 08:18:34;;;;;;;9.50;3.22;;;;;;;;;;8223904;28;20093;-63
2023/09/30 08:22:34;;;;;;;5.47;2.93;;;;;;;;;;8224909;28;20025;-63
2023/09/30 08:26:35;;;;;;;5.32;2.70;;;;;;;;;;8223092;28;20030;-63
2023/09/30 08:30:36;;;;;;;4.32;2.60;;;;;;;;;;8224272;28;20038;-62
2023/09/30 08:34:36;;;;;;;5.93;3.33;;;;;;;;;;8217744;28;23209;-61
2023/09/30 08:38:40;;;;;;;7.13;3.00;;;;;;;;;;8218129;28;20119;-61
2023/09/30 08:42:41;;;;;;;4.55;2.80;;;;;;;;;;8222982;28;22688;-61
2023/09/30 08:46:41;;;;;;;9.25;3.35;;;;;;;;;;8217185;28;20130;-60
2023/09/30 08:50:43;;;;;;;6.07;3.00;;;;;;;;;;8221421;28;20100;-61
2023/09/30 08:54:43;;;;;;;5.20;2.97;;;;;;;;;;8222924;28;20136;-62
2023/09/30 08:58:44;;;;;;;6.13;2.90;;;;;;;;;;8220492;28;20032;-63
2023/09/30 09:02:44;;;;;;;4.90;3.05;;;;;;;;;;8220989;28;20164;-62
2023/09/30 09:06:45;;;;;;;8.90;3.72;;;;;;;;;;8225521;28;20038;-62
2023/09/30 09:10:56;;;;;;;6.50;3.30;;;;;;;;;;8222623;28;20104;-61
2023/09/30 09:14:56;;;;;;;5.32;3.13;;;;;;;;;;8226494;28;20036;-61
2023/09/30 09:18:56;;;;;;;6.70;3.20;;;;;;;;;;8225281;28;20026;-62
2023/09/30 09:23:00;;;;;;;7.00;3.10;;;;;;;;;;8223006;28;20072;-61
2023/09/30 09:27:00;;;;;;;;;;;;;;;;;;8214322;28;20485;-62
2023/09/30 09:31:00;;;;;;;6.25;3.08;;;;;;;;;;8215080;28;19968;-62
2023/09/30 09:35:01;;;;;;;7.63;3.90;;;;;;;;;;8220999;28;20518;-66
2023/09/30 09:39:02;;;;;;;6.95;3.15;;;;;;;;;;8218805;28;20374;-62
2023/09/30 09:43:05;;;;;;;6.60;3.28;;;;;;;;;;8216414;28;20014;-62
2023/09/30 09:47:05;;;;;;;6.90;3.53;;;;;;;;;;8211404;28;20499;-61
2023/09/30 09:51:07;;;;;;;6.45;3.10;;;;;;;;;;8221558;28;20450;-62
2023/09/30 09:55:08;;;;;;;5.45;2.95;;;;;;;;;;8213956;28;20124;-63
2023/09/30 09:59:09;;;;;;;6.22;3.08;;;;;;;;;;8214931;28;20454;-62
2023/09/30 10:03:09;;;;;;;5.90;3.17;;;;;;;;;;8215479;28;20038;-61
2023/09/30 10:07:14;;;;;;;6.03;3.28;;;;;;;;;;8218080;28;20030;-61
2023/09/30 10:11:18;;;;;;;7.25;3.45;;;;;;;;;;8218833;28;20041;-61
2023/09/30 10:15:24;;;;;;;5.38;3.20;;;;;;;;;;8214349;28;20660;-62
2023/09/30 10:19:24;;;;;;;5.93;2.97;;;;;;;;;;8214873;28;20857;-62
2023/09/30 10:23:32;;;;;;;7.10;3.40;;;;;;;;;;8216190;28;20539;-62
2023/09/30 10:27:36;;;;;;;6.47;3.50;;;;;;;;;;8211736;28;20018;-61
2023/09/30 10:31:49;;;;;;;5.45;3.05;;;;;;;;;;8212732;28;20049;-62
2023/09/30 10:35:50;;;;;;;7.87;3.43;;;;;;;;;;8218565;28;20409;-61
2023/09/30 10:40:02;;;;;;;7.28;3.60;;;;;;;;;;8213242;28;20033;-60
2023/09/30 10:44:21;;;;;;;6.22;3.13;;;;;;;;;;8217963;28;20033;-61
2023/09/30 10:48:24;;;;;;;8.32;4.10;;;;;;;;;;8214473;28;20105;-61
2023/09/30 10:52:25;;;;;;;6.28;3.70;;;;;;;;;;8214245;28;20799;-62
2023/09/30 10:56:32;;;;;;;7.60;4.00;;;;;;;;;;8218692;28;20678;-66
2023/09/30 11:00:32;;;;;;;9.15;4.50;;;;;;;;;;8213231;28;20042;-61
2023/09/30 11:04:45;;;;;;;6.93;3.60;;;;;;;;;;8216880;28;20991;-62
2023/09/30 11:08:46;;;;;;;7.20;3.80;;;;;;;;;;8212950;28;20208;-61
2023/09/30 11:12:56;;;;;;;5.47;3.20;;;;;;;;;;8211982;28;20041;-62
2023/09/30 11:17:01;;;;;;;5.65;3.25;;;;;;;;;;8214388;28;20046;-62
2023/09/30 11:21:12;;;;;;;6.38;3.67;;;;;;;;;;8216436;28;20053;-62
2023/09/30 11:25:17;;;;;;;8.88;4.30;;;;;;;;;;8213959;28;20509;-62
2023/09/30 11:29:17;;;;;;;7.68;4.00;;;;;;;;;;8209824;28;20117;-61
2023/09/30 11:33:17;;;;;;;7.32;3.72;;;;;;;;;;8212942;28;20091;-62
2023/09/30 11:37:18;;;;;;;7.07;4.40;;;;;;;;;;8214800;28;20026;-62
2023/09/30 11:41:18;;;;;;;8.50;4.10;;;;;;;;;;8213550;28;20014;-62
2023/09/30 11:45:24;;;;;;;8.13;4.13;;;;;;;;;;8215945;28;20285;-62
2023/09/30 11:49:26;;;;;;;6.47;3.75;;;;;;;;;;8211498;28;20034;-61
2023/09/30 11:53:28;;;;;;;7.20;4.40;;;;;;;;;;8214419;28;20823;-61
2023/09/30 11:57:28;;;;;;;10.60;4.10;;;;;;;;;;8214146;28;20032;-61
2023/09/30 12:01:30;;;;;;;9.07;4.93;;;;;;;;;;8212669;28;20040;-61
2023/09/30 12:05:32;;;;;;;9.20;4.67;;;;;;;;;;8218277;28;20854;-60
2023/09/30 12:09:35;;;;;;;7.68;4.47;;;;;;;;;;8215902;28;20327;-61
2023/09/30 12:13:35;;;;;;;7.55;4.55;;;;;;;;;;8216785;28;20034;-61
2023/09/30 12:17:35;;;;;;;7.38;4.72;;;;;;;;;;8221231;28;20203;-61
2023/09/30 12:21:36;;;;;;;9.52;4.35;;;;;;;;;;8213620;28;21625;-61
2023/09/30 12:25:37;;;;;;;8.40;4.53;;;;;;;;;;8206983;28;20037;-60
2023/09/30 12:29:38;;;;;;;13.07;5.75;;;;;;;;;;8216894;28;20800;-61
2023/09/30 12:33:38;;;;;;;8.57;5.20;;;;;;;;;;8213916;28;20112;-62
2023/09/30 12:37:38;;;;;;;7.82;4.57;;;;;;;;;;8213902;28;20447;-62
2023/09/30 12:41:42;;;;;;;8.80;4.47;;;;;;;;;;8219417;28;20032;-61
2023/09/30 12:45:42;;;;;;;;;;;;;;;;;;8226655;28;20862;-61
2023/09/30 12:49:42;;;;;;;10.07;4.53;;;;;;;;;;8224656;28;19910;-62
2023/09/30 12:53:42;;;;;;;8.10;4.40;;;;;;;;;;8227298;28;20030;-62
2023/09/30 12:57:42;;;;;;;7.23;4.20;;;;;;;;;;8220637;28;20021;-61
2023/09/30 13:01:43;;;;;;;6.93;4.65;;;;;;;;;;8223145;28;20280;-61
2023/09/30 13:05:43;;;;;;;10.30;5.15;;;;;;;;;;8225323;28;20575;-61
2023/09/30 13:09:43;;;;;;;8.77;4.80;;;;;;;;;;8220923;28;20093;-61
2023/09/30 13:13:45;;;;;;;9.45;4.88;;;;;;;;;;8223882;28;20026;-63
2023/09/30 13:17:45;;;;;;;7.65;4.45;;;;;;;;;;8224472;28;20776;-62
2023/09/30 13:21:46;;;;;;;10.07;5.00;;;;;;;;;;8219154;28;20383;-62
2023/09/30 13:25:47;;;;;;;7.53;4.60;;;;;;;;;;8217470;28;20287;-62
2023/09/30 13:29:47;;;;;;;8.55;4.68;;;;;;;;;;8221604;28;20025;-62
2023/09/30 13:33:48;;;;;;;7.60;4.90;;;;;;;;;;8218664;28;20114;-61
2023/09/30 13:37:48;;;;;;;7.03;4.45;;;;;;;;;;8221945;28;20125;-62
2023/09/30 13:41:48;;;;;;;6.90;4.18;;;;;;;;;;8220287;28;20026;-63
2023/09/30 13:45:48;;;;;;;9.35;4.72;;;;;;;;;;8218361;28;20738;-62
2023/09/30 13:49:49;;;;;;;9.52;4.40;;;;;;;;;;8220170;28;20034;-61
2023/09/30 13:53:49;;;;;;;9.13;4.95;;;;;;;;;;8218433;28;20114;-62
2023/09/30 13:57:49;;;;;;;9.57;4.30;;;;;;;;;;8219339;28;20037;-62
2023/09/30 14:01:50;;;;;;;8.75;4.28;;;;;;;;;;8218305;28;20042;-61
2023/09/30 14:05:50;;;;;;;6.43;4.20;;;;;;;;;;8218580;28;20129;-61
2023/09/30 14:09:52;;;;;;;11.05;4.40;;;;;;;;;;8223766;28;20025;-61
2023/09/30 14:13:52;;;;;;;6.85;3.83;;;;;;;;;;8218517;28;20038;-63
2023/09/30 14:17:52;;;;;;;7.37;4.03;;;;;;;;;;8217803;28;21181;-61
2023/09/30 14:21:53;;;;;;;7.50;4.13;;;;;;;;;;8217198;28;20025;-61
2023/09/30 14:25:54;;;;;;;6.67;4.23;;;;;;;;;;8223007;28;20030;-62
2023/09/30 14:29:55;;;;;;;7.57;4.35;;;;;;;;;;8218645;28;20288;-62
2023/09/30 14:33:55;;;;;;;7.10;4.40;;;;;;;;;;8218735;28;20120;-62
2023/09/30 14:37:56;;;;;;;6.80;4.20;;;;;;;;;;8216744;28;20053;-62
2023/09/30 14:41:56;;;;;;;7.80;4.15;;;;;;;;;;8222913;28;20093;-61
2023/09/30 14:45:57;;;;;;;7.65;4.50;;;;;;;;;;8217447;28;20157;-62
2023/09/30 14:49:57;;;;;;;7.10;3.90;;;;;;;;;;8218303;28;20034;-62
2023/09/30 14:53:57;;;;;;;7.53;4.13;;;;;;;;;;8217148;28;20022;-62
2023/09/30 14:57:58;;;;;;;6.70;4.00;;;;;;;;;;8217288;28;20028;-63
2023/09/30 15:01:58;;;;;;;7.28;4.00;;;;;;;;;;8217020;28;20129;-62
2023/09/30 15:05:59;;;;;;;7.13;3.97;;;;;;;;;;8214825;28;20041;-62
2023/09/30 15:09:59;;;;;;;8.30;4.28;;;;;;;;;;8215993;28;20133;-62
2023/09/30 15:13:59;;;;;;;7.47;4.40;;;;;;;;;;8219391;28;20125;-61
2023/09/30 15:18:00;;;;;;;6.90;4.20;;;;;;;;;;8218918;28;21144;-62
2023/09/30 15:22:00;;;;;;;7.18;4.32;;;;;;;;;;8219391;28;20116;-61
2023/09/30 15:26:01;;;;;;;11.18;4.00;;;;;;;;;;8213826;28;20049;-62
2023/09/30 15:30:01;;;;;;;6.32;4.07;;;;;;;;;;8221980;28;20026;-62
2023/09/30 15:34:02;;;;;;;6.57;4.00;;;;;;;;;;8216966;28;20042;-62
2023/09/30 15:38:03;;;;;;;7.47;3.53;;;;;;;;;;8218133;28;20800;-61
2023/09/30 15:42:03;;;;;;;6.63;3.58;;;;;;;;;;8217946;28;20120;-60
2023/09/30 15:46:04;;;;;;;5.65;3.47;;;;;;;;;;8214698;28;20188;-60
2023/09/30 15:50:05;;;;;;;6.47;3.50;;;;;;;;;;8220619;28;20100;-62
2023/09/30 15:54:05;;;;;;;5.80;3.80;;;;;;;;;;8215539;28;20030;-62
2023/09/30 15:58:06;;;;;;;5.87;3.40;;;;;;;;;;8218148;28;20026;-61
2023/09/30 16:02:07;;;;;;;7.10;3.75;;;;;;;;;;8215704;28;20062;-62
2023/09/30 16:06:07;;;;;;;5.43;3.53;;;;;;;;;;8214764;28;20034;-61
2023/09/30 16:10:07;;;;;;;6.78;3.90;;;;;;;;;;8220646;28;20045;-61
2023/09/30 16:14:08;;;;;;;5.32;3.65;;;;;;;;;;8217403;28;20646;-61
2023/09/30 16:18:08;;;;;;;7.82;3.75;;;;;;;;;;8222852;28;20050;-61
2023/09/30 16:22:08;;;;;;;9.48;3.97;;;;;;;;;;8223128;28;20034;-62
2023/09/30 16:26:08;;;;;;;6.75;3.70;;;;;;;;;;8217484;28;20517;-61
2023/09/30 16:30:09;;;;;;;5.60;3.60;;;;;;;;;;8218248;28;20032;-61
2023/09/30 16:34:09;;;;;;;5.85;3.80;;;;;;;;;;8220441;28;20362;-62
2023/09/30 16:38:09;;;;;;;6.50;3.73;;;;;;;;;;8221079;28;20062;-60
2023/09/30 16:42:10;;;;;;;6.88;3.50;;;;;;;;;;8221828;28;20675;-60
2023/09/30 16:46:10;;;;;;;5.00;3.42;;;;;;;;;;8218305;28;20129;-61
2023/09/30 16:50:10;;;;;;;5.70;3.83;;;;;;;;;;8221103;28;20022;-60
2023/09/30 16:54:10;;;;;;;4.32;3.20;;;;;;;;;;8222979;28;20105;-60
2023/09/30 16:58:10;;;;;;;6.38;3.85;;;;;;;;;;8221402;28;20145;-60
2023/09/30 17:02:11;;;;;;;5.57;3.57;;;;;;;;;;8218379;28;20076;-60
2023/09/30 17:06:11;;;;;;;7.10;3.60;;;;;;;;;;8221244;28;20080;-61
2023/09/30 17:10:12;;;;;;;9.23;3.77;;;;;;;;;;8223274;28;20441;-60
2023/09/30 17:14:12;;;;;;;7.03;3.45;;;;;;;;;;8223563;28;20042;-61
2023/09/30 17:18:12;;;;;;;6.90;3.57;;;;;;;;;;8221478;28;20145;-60
2023/09/30 17:22:14;;;;;;;6.93;3.72;;;;;;;;;;8221192;28;20289;-60
2023/09/30 17:26:14;;;;;;;7.40;4.13;;;;;;;;;;8217890;28;20471;-60
2023/09/30 17:30:14;;;;;;;7.32;3.85;;;;;;;;;;8222473;28;20026;-61
2023/09/30 17:34:15;;;;;;;6.57;3.80;;;;;;;;;;8221382;28;20022;-60
2023/09/30 17:38:15;;;;;;;8.95;4.95;;;;;;;;;;8220456;28;20281;-60
2023/09/30 17:42:16;;;;;;;8.48;5.25;;;;;;;;;;8218972;28;20022;-60
2023/09/30 17:46:19;;;;;;;8.50;5.30;;;;;;;;;;8220070;28;20034;-60
2023/09/30 17:50:20;;;;;;;8.13;5.28;;;;;;;;;;8219106;28;20547;-60
2023/09/30 17:54:20;;;;;;;8.00;4.90;;;;;;;;;;8218308;28;20034;-60
2023/09/30 17:58:20;;;;;;;6.90;4.38;;;;;;;;;;8220171;28;20018;-60
2023/09/30 18:02:21;;;;;;;8.50;4.32;;;;;;;;;;8216924;28;20037;-60
2023/09/30 18:06:21;;;;;;;5.80;3.87;;;;;;;;;;8218646;28;20131;-60
2023/09/30 18:10:22;;;;;;;6.82;3.72;;;;;;;;;;8219381;28;20041;-60
2023/09/30 18:14:22;;;;;;;7.55;4.18;;;;;;;;;;8218272;28;20022;-61
2023/09/30 18:18:22;;;;;;;8.50;4.00;;;;;;;;;;8219572;28;20431;-60
2023/09/30 18:22:22;;;;;;;7.93;4.03;;;;;;;;;;8216079;28;20124;-60
2023/09/30 18:26:22;;;;;;;8.57;4.28;;;;;;;;;;8214251;28;20109;-60
2023/09/30 18:30:23;;;;;;;8.13;4.00;;;;;;;;;;8221123;28;20045;-60
2023/09/30 18:34:24;;;;;;;8.68;4.43;;;;;;;;;;8220067;28;20041;-60
2023/09/30 18:38:24;;;;;;;7.30;3.53;;;;;;;;;;8219080;28;20098;-59
2023/09/30 18:42:25;;;;;;;7.13;3.65;;;;;;;;;;8219560;28;20064;-61
2023/09/30 18:46:25;;;;;;;6.25;3.80;;;;;;;;;;8217865;28;20030;-60
2023/09/30 18:50:25;;;;;;;7.53;3.83;;;;;;;;;;8220720;28;20025;-60
2023/09/30 18:54:29;;;;;;;6.40;3.63;;;;;;;;;;8219257;28;20022;-61
2023/09/30 18:58:29;;;;;;;7.35;3.53;;;;;;;;;;8217516;28;20085;-60
2023/09/30 19:02:29;;;;;;;6.55;3.80;;;;;;;;;;8215274;28;20043;-61
2023/09/30 19:06:29;;;;;;;6.95;3.85;;;;;;;;;;8216237;28;20141;-60
2023/09/30 19:10:30;;;;;;;7.68;3.72;;;;;;;;;;8218813;28;20034;-61
2023/09/30 19:14:30;;;;;;;7.33;3.83;;;;;;;;;;8218207;28;20730;-60
2023/09/30 19:18:30;;;;;;;7.45;4.28;;;;;;;;;;8219674;28;20741;-60
2023/09/30 19:22:32;;;;;;;6.57;3.50;;;;;;;;;;8218203;28;20081;-60
2023/09/30 19:26:32;;;;;;;6.93;3.15;;;;;;;;;;8215272;28;20057;-59
2023/09/30 19:30:32;;;;;;;6.00;3.50;;;;;;;;;;8216985;28;20045;-60
2023/09/30 19:34:33;;;;;;;8.17;3.60;;;;;;;;;;8215504;28;20022;-60
2023/09/30 19:38:33;;;;;;;7.90;3.72;;;;;;;;;;8212397;28;20270;-59
2023/09/30 19:42:35;;;;;;;8.23;4.20;;;;;;;;;;8211312;28;20772;-59
2023/09/30 19:46:35;;;;;;;7.75;3.60;;;;;;;;;;8211465;28;20111;-61
2023/09/30 19:50:36;;;;;;;8.35;3.58;;;;;;;;;;8211965;28;20026;-60
2023/09/30 19:54:37;;;;;;;5.82;3.53;;;;;;;;;;8215684;28;20041;-60
2023/09/30 19:58:37;;;;;;;5.20;3.40;;;;;;;;;;8210260;28;20015;-61
2023/09/30 20:02:37;;;;;;;7.55;3.53;;;;;;;;;;8208686;28;20035;-61
2023/09/30 20:06:38;;;;;;;6.00;3.53;;;;;;;;;;8213883;28;20111;-60
2023/09/30 20:10:38;;;;;;;8.20;3.38;;;;;;;;;;8212778;28;20030;-61
2023/09/30 20:14:39;;;;;;;5.90;3.28;;;;;;;;;;8209063;28;20026;-60
2023/09/30 20:18:39;;;;;;;8.10;3.70;;;;;;;;;;8210113;28;20035;-60
2023/09/30 20:22:39;;;;;;;8.07;3.67;;;;;;;;;;8207426;28;20026;-60
2023/09/30 20:26:39;;;;;;;5.40;3.20;;;;;;;;;;8201761;28;20323;-60
2023/09/30 20:30:39;;;;;;;6.55;3.17;;;;;;;;;;8205497;28;20046;-60
2023/09/30 20:34:40;;;;;;;9.13;3.60;;;;;;;;;;8213042;28;20033;-61
2023/09/30 20:38:40;;;;;;;8.38;3.75;;;;;;;;;;8214806;28;20046;-61
2023/09/30 20:42:40;;;;;;;8.98;3.90;;;;;;;;;;8207506;28;20026;-61
2023/09/30 20:46:43;;;;;;;9.82;3.58;;;;;;;;;;8211913;28;20030;-60
2023/09/30 20:50:43;;;;;;;7.90;3.60;;;;;;;;;;8213192;28;20568;-60
2023/09/30 20:54:43;;;;;;;6.43;3.38;;;;;;;;;;8209773;28;20030;-61
2023/09/30 20:58:43;;;;;;;5.88;3.60;;;;;;;;;;8217127;28;20125;-61
2023/09/30 21:02:44;;;;;;;7.45;3.72;;;;;;;;;;8213797;28;20038;-60
2023/09/30 21:06:44;;;;;;;10.05;3.83;;;;;;;;;;8218263;28;20028;-60
2023/09/30 21:10:45;;;;;;;7.32;3.67;;;;;;;;;;8215843;28;20034;-61
2023/09/30 21:14:45;;;;;;;8.88;3.50;;;;;;;;;;8212932;28;20025;-62
2023/09/30 21:18:45;;;;;;;8.52;3.90;;;;;;;;;;8214504;28;20034;-62
2023/09/30 21:22:46;;;;;;;7.72;3.35;;;;;;;;;;8220907;28;20036;-61
2023/09/30 21:26:46;;;;;;;7.45;3.90;;;;;;;;;;8219952;28;20033;-60
2023/09/30 21:30:46;;;;;;;5.83;3.20;;;;;;;;;;8217139;28;20115;-60
2023/09/30 21:34:47;;;;;;;7.73;3.53;;;;;;;;;;8222807;28;20064;-60
2023/09/30 21:38:48;;;;;;;5.53;3.25;;;;;;;;;;8221944;28;20280;-61
2023/09/30 21:42:48;;;;;;;6.07;3.60;;;;;;;;;;8215982;28;20021;-60
2023/09/30 21:46:49;;;;;;;8.63;3.88;;;;;;;;;;8216889;28;20080;-61
2023/09/30 21:50:49;;;;;;;8.67;4.10;;;;;;;;;;8216564;28;20137;-61
2023/09/30 21:54:49;;;;;;;6.47;3.38;;;;;;;;;;8219006;28;20026;-61
2023/09/30 21:58:51;;;;;;;6.70;3.67;;;;;;;;;;8217842;28;20026;-62
2023/09/30 22:02:53;;;;;;;8.27;3.65;;;;;;;;;;8219952;28;20172;-61
2023/09/30 22:06:53;;;;;;;5.75;3.47;;;;;;;;;;8223503;28;20060;-60
2023/09/30 22:10:53;;;;;;;6.03;3.40;;;;;;;;;;8216828;28;20771;-60
2023/09/30 22:14:54;;;;;;;8.98;4.25;;;;;;;;;;8217234;28;20160;-60
2023/09/30 22:18:56;;;;;;;9.02;4.00;;;;;;;;;;8216612;28;20873;-61
2023/09/30 22:22:56;;;;;;;12.68;4.07;;;;;;;;;;8216078;28;20438;-61
2023/09/30 22:26:57;;;;;;;9.25;3.80;;;;;;;;;;8217934;28;20029;-60
2023/09/30 22:30:58;;;;;;;8.20;3.80;;;;;;;;;;8214534;28;20110;-60
2023/09/30 22:35:00;;;;;;;8.73;3.92;;;;;;;;;;8219885;28;20033;-60
2023/09/30 22:39:00;;;;;;;7.03;3.70;;;;;;;;;;8217715;28;20828;-60
2023/09/30 22:43:00;;;;;;;7.65;3.92;;;;;;;;;;8215715;28;20145;-59
2023/09/30 22:47:00;;;;;;;8.40;3.90;;;;;;;;;;8218347;28;20065;-60
2023/09/30 22:51:02;;;;;;;9.35;4.07;;;;;;;;;;8217216;28;20022;-60
2023/09/30 22:55:04;;;;;;;8.63;4.07;;;;;;;;;;8218507;28;20058;-60
2023/09/30 22:59:07;;;;;;;6.78;3.50;;;;;;;;;;8211571;28;20027;-60
2023/09/30 23:03:07;;;;;;;8.52;3.80;;;;;;;;;;8215725;28;20286;-60
2023/09/30 23:07:09;;;;;;;8.32;3.70;;;;;;;;;;8214365;28;20491;-60
2023/09/30 23:11:14;;;;;;;7.05;3.50;;;;;;;;;;8213387;28;20544;-59
2023/09/30 23:15:15;;;;;;;9.45;3.95;;;;;;;;;;8216948;28;20222;-60
2023/09/30 23:19:16;;;;;;;7.57;3.88;;;;;;;;;;8212975;28;20146;-60
2023/09/30 23:23:16;;;;;;;10.73;4.78;;;;;;;;;;8215975;28;20467;-61
2023/09/30 23:27:16;;;;;;;8.70;4.05;;;;;;;;;;8221079;28;20026;-60
2023/09/30 23:31:17;;;;;;;9.07;4.22;;;;;;;;;;8217356;28;20495;-60
2023/09/30 23:35:20;;;;;;;8.55;4.32;;;;;;;;;;8217521;28;20048;-61
2023/09/30 23:39:20;;;;;;;9.07;4.07;;;;;;;;;;8215621;28;20207;-60
2023/09/30 23:43:21;;;;;;;8.77;4.18;;;;;;;;;;8215666;28;20448;-61
2023/09/30 23:47:21;;;;;;;9.00;3.85;;;;;;;;;;8217327;28;20037;-60
2023/09/30 23:51:23;;;;;;;7.15;4.10;;;;;;;;;;8218819;28;20026;-60
2023/09/30 23:55:25;;;;;;;7.80;4.18;;;;;;;;;;8220298;28;20022;-61
2023/09/30 23:59:25;;;;;;;7.72;4.25;;;;;;;;;;8215332;28;20080;-60
